Macondo — 3EYB9 — position and weather

sailwx.info

Track history (hours):
 
Tides and Currents Weather Stations Pressure Air Temp Water Temp Dewpoint Dewpoint Depression Visibility Wind Speed Wind Dir Waves Ship Positions

Macondo

Last reported at 2014-Oct-17 04:31 UTC. Time now 2014-Oct-21 16:51 UTC.
Position N 27°30' W 083°02'.

Length 120 m; draft 5 m.

Type: Ship. MMSI: 371293000.

Date/timePositionNaut miles runAvg speedWind from/ knotsBaromVisibWave heightAir tempDewpointWater temp
2014-Oct-17 04:31N 27°30' W 083°02'8 8.7
2014-Oct-17 03:33N 27°36' W 082°55'9 8.8
2014-Oct-17 02:33N 27°36' W 082°46'8 8.5
2014-Oct-17 01:34N 27°39' W 082°37'9 8.5
2014-Oct-17 00:34N 27°46' W 082°31'8 7.7
2014-Oct-16 23:33N 27°53' W 082°26'3 2.9
2014-Oct-16 22:33N 27°56' W 082°26'0 0.0
2014-Oct-16 21:33N 27°56' W 082°26'0 0.0
2014-Oct-16 20:33N 27°56' W 082°26'0 0.0
2014-Oct-16 19:33N 27°56' W 082°26'0 0.0
2014-Oct-16 18:33N 27°56' W 082°26'0 0.0
2014-Oct-16 17:33N 27°56' W 082°26'0 0.0
2014-Oct-16 16:33N 27°56' W 082°26'0 0.0
2014-Oct-16 15:33N 27°56' W 082°26'0 0.0
2014-Oct-16 14:33N 27°56' W 082°26'0 0.0
2014-Oct-16 13:33N 27°56' W 082°26'0 0.0
2014-Oct-16 12:33N 27°56' W 082°26'0 0.0
2014-Oct-16 11:33N 27°56' W 082°26'0 0.0
2014-Oct-16 10:33N 27°56' W 082°26'0 0.0
2014-Oct-16 09:33N 27°56' W 082°26'0 0.0
2014-Oct-16 08:33N 27°56' W 082°26'0 0.0
2014-Oct-16 07:34N 27°56' W 082°26'0 0.0
2014-Oct-16 06:33N 27°56' W 082°26'0 0.0
2014-Oct-16 05:33N 27°56' W 082°26'0 0.0
2014-Oct-16 04:33N 27°56' W 082°26'0 0.0
2014-Oct-16 03:33N 27°56' W 082°26'0 0.0
2014-Oct-16 02:33N 27°56' W 082°26'0 0.0
2014-Oct-16 01:33N 27°56' W 082°26'0 0.0
2014-Oct-16 00:33N 27°56' W 082°26'3 2.9
2014-Oct-15 23:33N 27°53' W 082°26'9 9.1
2014-Oct-15 22:33N 27°45' W 082°32'1010.2
2014-Oct-15 21:33N 27°37' W 082°39'1010.4
2014-Oct-15 20:33N 27°36' W 082°51'9 9.4
2014-Oct-15 19:33N 27°34' W 083°01'  
Track history (hours):
 
Tides and Currents Weather Stations Pressure Air Temp Water Temp Dewpoint Dewpoint Depression Visibility Wind Speed Wind Dir Waves Ship Positions

Macondo

Last reported at 2014-Oct-17 04:31 UTC. Time now 2014-Oct-21 16:51 UTC.
Position N 27°30' W 083°02'.

Length 120 m; draft 5 m.

Type: Ship. MMSI: 371293000.

Date/timePositionNaut miles runAvg speedWind from/ knotsBaromVisibWave heightAir tempDewpointWater temp
2014-Oct-17 04:31N 27°30' W 083°02'8 8.7
2014-Oct-17 03:33N 27°36' W 082°55'9 8.8
2014-Oct-17 02:33N 27°36' W 082°46'8 8.5
2014-Oct-17 01:34N 27°39' W 082°37'9 8.5
2014-Oct-17 00:34N 27°46' W 082°31'8 7.7
2014-Oct-16 23:33N 27°53' W 082°26'3 2.9
2014-Oct-16 22:33N 27°56' W 082°26'0 0.0
2014-Oct-16 21:33N 27°56' W 082°26'0 0.0
2014-Oct-16 20:33N 27°56' W 082°26'0 0.0
2014-Oct-16 19:33N 27°56' W 082°26'0 0.0
2014-Oct-16 18:33N 27°56' W 082°26'0 0.0
2014-Oct-16 17:33N 27°56' W 082°26'0 0.0
2014-Oct-16 16:33N 27°56' W 082°26'0 0.0
2014-Oct-16 15:33N 27°56' W 082°26'0 0.0
2014-Oct-16 14:33N 27°56' W 082°26'0 0.0
2014-Oct-16 13:33N 27°56' W 082°26'0 0.0
2014-Oct-16 12:33N 27°56' W 082°26'0 0.0
2014-Oct-16 11:33N 27°56' W 082°26'0 0.0
2014-Oct-16 10:33N 27°56' W 082°26'0 0.0
2014-Oct-16 09:33N 27°56' W 082°26'0 0.0
2014-Oct-16 08:33N 27°56' W 082°26'0 0.0
2014-Oct-16 07:34N 27°56' W 082°26'0 0.0
2014-Oct-16 06:33N 27°56' W 082°26'0 0.0
2014-Oct-16 05:33N 27°56' W 082°26'0 0.0
2014-Oct-16 04:33N 27°56' W 082°26'0 0.0
2014-Oct-16 03:33N 27°56' W 082°26'0 0.0
2014-Oct-16 02:33N 27°56' W 082°26'0 0.0
2014-Oct-16 01:33N 27°56' W 082°26'0 0.0
2014-Oct-16 00:33N 27°56' W 082°26'3 2.9
2014-Oct-15 23:33N 27°53' W 082°26'9 9.1
2014-Oct-15 22:33N 27°45' W 082°32'1010.2
2014-Oct-15 21:33N 27°37' W 082°39'1010.4
2014-Oct-15 20:33N 27°36' W 082°51'9 9.4
2014-Oct-15 19:33N 27°34' W 083°01'  

Dump ship's entire track history